createdAt,value
2022-10-17T00:01:05.952Z,101496.91
2022-10-17T00:03:35.007Z,101497.75
2022-10-17T00:06:07.752Z,101506.50
2022-10-17T00:08:37.083Z,101504.78
2022-10-17T00:11:12.940Z,101509.09
2022-10-17T00:13:41.858Z,101513.53
2022-10-17T00:16:09.680Z,101517.00
2022-10-17T00:18:37.063Z,101512.53
2022-10-17T00:21:04.882Z,101501.03
2022-10-17T00:23:33.737Z,101502.78
2022-10-17T00:26:04.352Z,101507.19
2022-10-17T00:28:32.412Z,101505.38
2022-10-17T00:31:03.429Z,101495.66
2022-10-17T00:33:32.977Z,101492.06
2022-10-17T00:36:17.672Z,101493.81
2022-10-17T00:38:49.723Z,101495.59
2022-10-17T00:41:22.553Z,101500.91
2022-10-17T00:44:29.517Z,101498.25
2022-10-17T00:47:09.520Z,101499.13
2022-10-17T00:49:38.693Z,101483.25
2022-10-17T00:52:15.761Z,101484.97
2022-10-17T00:54:51.723Z,101485.84
2022-10-17T00:57:19.204Z,101479.66
2022-10-17T00:59:54.301Z,101478.78
2022-10-17T01:02:23.801Z,101482.28
2022-10-17T01:04:56.413Z,101487.56
2022-10-17T01:07:23.968Z,101484.88
2022-10-17T01:09:51.489Z,101485.72
2022-10-17T01:13:08.444Z,101483.03
2022-10-17T01:15:55.528Z,101483.03
2022-10-17T01:18:29.144Z,101480.34
2022-10-17T01:21:48.058Z,101475.94
2022-10-17T01:24:37.068Z,101478.56
2022-10-17T01:27:26.990Z,101474.13
2022-10-17T01:30:53.595Z,101474.06
2022-10-17T01:33:40.968Z,101476.78
2022-10-17T01:36:46.163Z,101484.63
2022-10-17T01:40:16.121Z,101481.88
2022-10-17T01:42:59.571Z,101472.06
2022-10-17T01:45:42.569Z,101461.38
2022-10-17T01:48:22.357Z,101460.34
2022-10-17T01:51:08.500Z,101462.91
2022-10-17T01:53:44.563Z,101451.34
2022-10-17T01:56:19.458Z,101447.72
2022-10-17T01:58:59.478Z,101446.66
2022-10-17T02:01:31.639Z,101446.63
2022-10-17T02:04:03.815Z,101446.50
2022-10-17T02:06:38.611Z,101451.69
2022-10-17T02:09:26.931Z,101445.44
2022-10-17T02:12:52.330Z,101443.59
2022-10-17T02:15:49.815Z,101442.63
2022-10-17T02:18:56.768Z,101440.81
2022-10-17T02:22:01.756Z,101450.50
2022-10-17T02:25:23.437Z,101447.72
2022-10-17T02:28:15.788Z,101451.31
2022-10-17T02:30:51.673Z,101451.19
2022-10-17T02:33:39.156Z,101450.22
2022-10-17T02:36:16.093Z,101443.16
2022-10-17T02:38:46.147Z,101440.50
2022-10-17T02:41:18.675Z,101436.91
2022-10-17T02:43:50.453Z,101443.09
2022-10-17T02:46:21.961Z,101450.31
2022-10-17T02:49:07.235Z,101444.25
2022-10-17T02:52:04.996Z,101458.31
2022-10-17T02:54:36.462Z,101440.59
2022-10-17T02:57:14.434Z,101447.63
2022-10-17T02:59:45.867Z,101445.78
2022-10-17T03:02:13.712Z,101449.25
2022-10-17T03:04:46.494Z,101444.78
2022-10-17T03:07:13.893Z,101449.13
2022-10-17T03:09:41.327Z,101442.97
2022-10-17T03:12:08.844Z,101448.28
2022-10-17T03:14:36.547Z,101451.84
2022-10-17T03:17:04.504Z,101450.06
2022-10-17T03:19:31.894Z,101437.69
2022-10-17T03:21:59.258Z,101455.34
2022-10-17T03:24:26.717Z,101449.13
2022-10-17T03:26:54.322Z,101447.47
2022-10-17T03:29:21.833Z,101442.22
2022-10-17T03:31:49.305Z,101452.00
2022-10-17T03:34:18.818Z,101457.28
2022-10-17T03:36:46.807Z,101454.63
2022-10-17T03:39:14.241Z,101459.94
2022-10-17T03:41:42.358Z,101452.88
2022-10-17T03:44:09.982Z,101451.09
2022-10-17T03:46:37.481Z,101453.69
2022-10-17T03:49:05.063Z,101456.25
2022-10-17T03:51:35.198Z,101458.88
2022-10-17T03:54:06.992Z,101455.31
2022-10-17T03:56:34.469Z,101450.88
2022-10-17T03:59:05.082Z,101456.97
2022-10-17T04:01:35.772Z,101455.16
2022-10-17T04:04:03.340Z,101450.66
2022-10-17T04:06:34.315Z,101453.25
2022-10-17T04:09:02.854Z,101445.22
2022-10-17T04:12:02.583Z,101439.88
2022-10-17T04:14:31.907Z,101452.16
2022-10-17T04:16:59.769Z,101453.75
2022-10-17T04:19:28.525Z,101454.66
2022-10-17T04:21:56.715Z,101458.84
2022-10-17T04:24:25.792Z,101451.66
2022-10-17T04:27:06.600Z,101447.13
2022-10-17T04:29:37.633Z,101446.03
2022-10-17T04:32:10.970Z,101453.00
2022-10-17T04:34:43.405Z,101466.91
2022-10-17T04:37:11.322Z,101462.44
2022-10-17T04:39:38.782Z,101472.94
2022-10-17T04:42:06.170Z,101478.91
2022-10-17T04:44:35.426Z,101471.72
2022-10-17T04:47:03.057Z,101468.03
2022-10-17T04:49:30.507Z,101487.34
2022-10-17T04:52:06.975Z,101477.50
2022-10-17T04:54:43.525Z,101478.22
2022-10-17T04:57:16.038Z,101486.13
2022-10-17T04:59:52.956Z,101486.88
2022-10-17T05:02:41.725Z,101479.72
2022-10-17T05:05:10.081Z,101481.38
2022-10-17T05:07:40.741Z,101483.03
2022-10-17T05:10:13.213Z,101494.53
2022-10-17T05:12:44.338Z,101485.66
2022-10-17T05:15:13.127Z,101489.97
2022-10-17T05:17:41.761Z,101484.59
2022-10-17T05:20:10.324Z,101493.31
2022-10-17T05:22:45.881Z,101497.66
2022-10-17T05:25:13.420Z,101503.78
2022-10-17T05:27:40.821Z,101499.28
2022-10-17T05:30:09.991Z,101493.06
2022-10-17T05:32:39.545Z,101512.47
2022-10-17T05:35:08.586Z,101500.88
2022-10-17T05:37:37.380Z,101506.13
2022-10-17T05:40:06.666Z,101515.78
2022-10-17T05:42:34.214Z,101518.41
2022-10-17T05:45:02.388Z,101513.94
2022-10-17T05:47:30.969Z,101522.72
2022-10-17T05:49:59.380Z,101519.16
2022-10-17T05:52:33.736Z,101523.50
2022-10-17T05:55:13.248Z,101526.09
2022-10-17T05:57:41.020Z,101524.25
2022-10-17T06:00:14.172Z,101534.81
2022-10-17T06:02:48.888Z,101534.69
2022-10-17T06:05:19.116Z,101541.75
2022-10-17T06:07:50.037Z,101542.50
2022-10-17T06:10:18.956Z,101536.28
2022-10-17T06:12:47.010Z,101538.91
2022-10-17T06:15:15.972Z,101531.75
2022-10-17T06:17:47.808Z,101537.78
2022-10-17T06:20:15.623Z,101537.75
2022-10-17T06:22:44.001Z,101535.88
2022-10-17T06:25:17.540Z,101541.91
2022-10-17T06:27:45.105Z,101549.81
2022-10-17T06:30:13.095Z,101552.44
2022-10-17T06:32:40.490Z,101555.88
2022-10-17T06:35:08.188Z,101561.06
2022-10-17T06:37:38.856Z,101560.13
2022-10-17T06:40:12.220Z,101551.22
2022-10-17T06:42:40.094Z,101555.63
2022-10-17T06:45:26.178Z,101549.38
2022-10-17T06:48:09.656Z,101545.81
2022-10-17T06:50:44.599Z,101541.31
2022-10-17T06:53:16.374Z,101549.22
2022-10-17T06:56:04.208Z,101555.34
2022-10-17T06:58:54.668Z,101554.38
2022-10-17T07:01:35.145Z,101560.50
2022-10-17T07:04:04.493Z,101565.69
2022-10-17T07:06:32.348Z,101558.59
2022-10-17T07:09:06.950Z,101561.19
2022-10-17T07:11:37.313Z,101569.03
2022-10-17T07:14:04.929Z,101560.06
2022-10-17T07:16:32.377Z,101576.69
2022-10-17T07:19:08.990Z,101578.28
2022-10-17T07:21:41.656Z,101569.31
2022-10-17T07:24:11.269Z,101571.78
2022-10-17T07:26:40.828Z,101568.16
2022-10-17T07:29:09.928Z,101577.78
2022-10-17T07:31:48.872Z,101587.41
2022-10-17T07:34:16.390Z,101595.31
2022-10-17T07:36:45.441Z,101595.16
2022-10-17T07:39:14.346Z,101595.06
2022-10-17T07:41:41.788Z,101602.97
2022-10-17T07:44:09.379Z,101610.00
2022-10-17T07:46:43.044Z,101614.34
2022-10-17T07:49:11.306Z,101626.72
2022-10-17T07:51:40.909Z,101634.63
2022-10-17T07:54:08.729Z,101635.47
2022-10-17T07:56:36.370Z,101639.84
2022-10-17T07:59:06.710Z,101652.22
2022-10-17T08:01:37.053Z,101670.81
2022-10-17T08:04:04.400Z,101692.03
2022-10-17T08:06:31.732Z,101693.78
2022-10-17T08:08:59.574Z,101694.69
2022-10-17T08:11:26.992Z,101706.16
2022-10-17T08:13:54.369Z,101711.34
2022-10-17T08:16:21.739Z,101701.59
2022-10-17T08:18:52.349Z,101723.72
2022-10-17T08:21:22.380Z,101724.56
2022-10-17T08:23:49.753Z,101723.66
2022-10-17T08:26:19.892Z,101721.72
2022-10-17T08:28:48.431Z,101730.47
2022-10-17T08:31:19.437Z,101732.09
2022-10-17T08:33:49.800Z,101735.56
2022-10-17T08:36:20.124Z,101743.41
2022-10-17T08:38:52.444Z,101756.66
2022-10-17T08:42:00.993Z,101765.34
2022-10-17T08:45:08.378Z,101769.69
2022-10-17T08:47:44.150Z,101773.22
2022-10-17T08:50:39.970Z,101769.50
2022-10-17T08:53:27.555Z,101779.13
2022-10-17T08:55:55.653Z,101771.09
2022-10-17T08:58:35.554Z,101778.94
2022-10-17T09:01:12.931Z,101774.34
2022-10-17T09:04:16.539Z,101784.88
2022-10-17T09:07:13.405Z,101784.78
2022-10-17T09:10:01.769Z,101787.34
2022-10-17T09:13:09.992Z,101789.81
2022-10-17T09:15:43.208Z,101789.75
2022-10-17T09:18:27.741Z,101775.44
2022-10-17T09:21:08.964Z,101787.63
2022-10-17T09:23:59.452Z,101778.72
2022-10-17T09:26:40.680Z,101781.38
2022-10-17T09:29:22.399Z,101780.56
2022-10-17T09:32:21.250Z,101795.66
2022-10-17T09:34:57.629Z,101797.47
2022-10-17T09:37:33.042Z,101831.19
2022-10-17T09:40:01.054Z,101866.72
2022-10-17T09:42:28.991Z,101894.31
2022-10-17T09:45:19.284Z,101875.84
2022-10-17T09:47:59.496Z,101774.97
2022-10-17T09:50:33.250Z,101787.53
2022-10-17T09:53:15.748Z,101761.06
2022-10-17T09:55:49.272Z,101766.44
2022-10-17T09:58:16.643Z,101770.03
2022-10-17T10:00:48.260Z,101786.00
2022-10-17T10:03:22.732Z,101794.88
2022-10-17T10:06:26.153Z,101810.78
2022-10-17T10:08:58.616Z,101821.38
2022-10-17T10:11:49.874Z,101829.28
2022-10-17T10:14:35.934Z,101828.38
2022-10-17T10:17:24.157Z,101843.50
2022-10-17T10:19:53.014Z,101813.38
2022-10-17T10:22:26.116Z,101806.31
2022-10-17T10:25:17.256Z,101807.13
2022-10-17T10:27:47.391Z,101814.28
2022-10-17T10:30:32.055Z,101832.91
2022-10-17T10:33:01.557Z,101833.03
2022-10-17T10:35:35.681Z,101834.84
2022-10-17T10:38:13.602Z,101832.25
2022-10-17T10:40:55.654Z,101840.22
2022-10-17T10:43:31.049Z,101846.44
2022-10-17T10:45:59.736Z,101852.66
2022-10-17T10:48:37.556Z,101845.41
2022-10-17T10:51:21.009Z,101852.47
2022-10-17T10:54:11.982Z,101847.94
2022-10-17T10:56:48.777Z,101843.50
2022-10-17T10:59:55.847Z,101851.28
2022-10-17T11:02:42.840Z,101870.59
2022-10-17T11:05:37.446Z,101872.25
2022-10-17T11:08:42.804Z,101888.00
2022-10-17T11:11:28.169Z,101891.56
2022-10-17T11:14:08.742Z,101882.59
2022-10-17T11:17:01.005Z,101882.44
2022-10-17T11:19:43.877Z,101890.31
2022-10-17T11:22:34.667Z,101899.91
2022-10-17T11:25:38.580Z,101904.28
2022-10-17T11:28:20.303Z,101914.88
2022-10-17T11:30:52.972Z,101918.56
2022-10-17T11:33:39.437Z,101928.22
2022-10-17T11:36:10.349Z,101936.16
2022-10-17T11:39:04.524Z,101935.28
2022-10-17T11:41:55.214Z,101939.66
2022-10-17T11:44:36.730Z,101944.97
2022-10-17T11:47:45.075Z,101953.78
2022-10-17T11:53:34.503Z,101945.06
2022-10-17T11:56:02.780Z,101950.38
2022-10-17T11:59:01.549Z,101948.53
2022-10-17T12:01:45.678Z,101951.09
2022-10-17T12:04:26.692Z,101943.94
2022-10-17T12:07:15.568Z,101951.84
2022-10-17T12:10:01.060Z,101944.75
2022-10-17T12:12:35.107Z,101944.75
2022-10-17T12:15:11.456Z,101944.69
2022-10-17T12:17:45.821Z,101945.53
2022-10-17T12:20:25.464Z,101956.06
2022-10-17T12:23:23.993Z,101950.75
2022-10-17T12:26:10.379Z,101955.22
2022-10-17T12:28:37.759Z,101962.31
2022-10-17T12:31:29.683Z,101963.13
2022-10-17T12:34:05.430Z,101964.97
2022-10-17T12:36:33.075Z,101962.31
2022-10-17T12:39:03.061Z,101967.56
2022-10-17T12:41:39.627Z,101963.13
2022-10-17T12:44:13.883Z,101966.66
2022-10-17T12:47:07.938Z,101973.66
2022-10-17T12:49:41.050Z,101968.22
2022-10-17T12:52:11.235Z,101958.31
2022-10-17T12:54:47.642Z,101969.66
2022-10-17T12:57:39.441Z,101960.63
2022-10-17T13:00:33.676Z,101961.28
2022-10-17T13:03:12.163Z,101964.75
2022-10-17T13:05:47.718Z,101974.47
2022-10-17T13:08:22.947Z,101974.41
2022-10-17T13:10:53.538Z,101977.88
2022-10-17T13:13:33.702Z,101977.00
2022-10-17T13:16:01.256Z,101989.41
2022-10-17T13:18:29.922Z,101994.72
2022-10-17T13:21:26.929Z,101996.38
2022-10-17T13:23:54.993Z,102000.97
2022-10-17T13:26:26.728Z,102006.34
2022-10-17T13:29:04.725Z,102002.81
2022-10-17T13:31:41.762Z,102008.19
2022-10-17T13:34:23.569Z,102018.00
2022-10-17T13:36:56.644Z,102020.72
2022-10-17T13:39:54.439Z,102022.50
2022-10-17T13:42:31.316Z,102019.00
2022-10-17T13:44:59.671Z,102027.03
2022-10-17T13:47:32.631Z,102035.06
2022-10-17T13:50:00.854Z,102037.81
2022-10-17T13:52:30.760Z,102040.38
2022-10-17T13:55:22.635Z,102042.25
2022-10-17T13:57:52.276Z,102047.72
2022-10-17T14:00:23.085Z,102049.44
2022-10-17T14:02:50.508Z,102049.50
2022-10-17T14:05:21.075Z,102047.72
2022-10-17T14:08:21.905Z,102048.63
2022-10-17T14:10:48.020Z,102048.75
2022-10-17T14:13:26.000Z,102060.22
2022-10-17T14:16:03.079Z,102066.44
2022-10-17T14:18:36.557Z,102069.09
2022-10-17T14:24:22.358Z,102080.66
2022-10-17T14:26:59.448Z,102082.50
2022-10-17T14:29:49.829Z,102084.34
2022-10-17T14:32:19.598Z,102095.94
2022-10-17T14:34:55.238Z,102104.00
2022-10-17T14:37:47.577Z,102104.91
2022-10-17T14:40:27.310Z,102103.22
2022-10-17T14:43:00.279Z,102106.81
2022-10-17T14:45:34.848Z,102104.13
2022-10-17T14:48:13.466Z,102122.78
2022-10-17T14:50:43.426Z,102113.97
2022-10-17T14:53:10.694Z,102113.97
2022-10-17T14:55:57.267Z,102116.53
2022-10-17T14:58:28.052Z,102114.78
2022-10-17T15:00:56.739Z,102105.09
2022-10-17T15:03:25.205Z,102110.41
2022-10-17T15:05:55.218Z,102106.75
2022-10-17T15:08:24.273Z,102109.41
2022-10-17T15:10:51.910Z,102110.28
2022-10-17T15:13:28.039Z,102112.13
2022-10-17T15:15:56.374Z,102114.88
2022-10-17T15:18:23.748Z,102104.22
2022-10-17T15:20:59.522Z,102107.75
2022-10-17T15:23:32.540Z,102105.19
2022-10-17T15:26:00.897Z,102103.41
2022-10-17T15:28:28.422Z,102109.66
2022-10-17T15:30:55.795Z,102116.72
2022-10-17T15:33:23.156Z,102115.81
2022-10-17T15:35:51.830Z,102121.16
2022-10-17T15:38:19.236Z,102118.56
2022-10-17T15:40:48.850Z,102127.38
2022-10-17T15:43:19.785Z,102138.06
2022-10-17T15:46:00.184Z,102139.09
2022-10-17T15:48:31.563Z,102155.06
2022-10-17T15:55:35.648Z,102172.16
2022-10-17T15:58:03.856Z,102171.25
2022-10-17T16:00:31.364Z,102174.72
2022-10-17T16:02:58.805Z,102170.38
2022-10-17T16:05:26.868Z,102161.50
2022-10-17T16:07:55.190Z,102163.34
2022-10-17T16:10:23.586Z,102167.81
2022-10-17T16:12:51.164Z,102172.31
2022-10-17T16:15:28.029Z,102175.94
2022-10-17T16:17:59.637Z,102178.63
2022-10-17T16:20:42.309Z,102184.03
2022-10-17T16:23:12.975Z,102185.91
2022-10-17T16:25:41.460Z,102198.38
2022-10-17T16:28:09.055Z,102196.75
2022-10-17T16:30:44.453Z,102191.56
2022-10-17T16:33:14.983Z,102188.09
2022-10-17T16:35:42.444Z,102186.41
2022-10-17T16:38:12.617Z,102199.78
2022-10-17T16:40:40.728Z,102197.19
2022-10-17T16:43:13.177Z,102208.75
2022-10-17T16:45:41.125Z,102207.94
2022-10-17T16:48:09.658Z,102211.50
2022-10-17T16:50:39.893Z,102216.00
2022-10-17T16:53:07.315Z,102209.00
2022-10-17T16:55:34.691Z,102203.81
2022-10-17T16:58:02.045Z,102214.44
2022-10-17T17:00:29.542Z,102216.28
2022-10-17T17:02:56.965Z,102217.19
2022-10-17T17:05:24.318Z,102220.81
2022-10-17T17:07:51.677Z,102219.16
2022-10-17T17:10:19.016Z,102227.16
2022-10-17T17:12:46.384Z,102235.19
2022-10-17T17:15:13.806Z,102231.66
2022-10-17T17:17:56.675Z,102229.91
2022-10-17T17:20:24.724Z,102231.75
2022-10-17T17:22:52.282Z,102234.47
2022-10-17T17:25:19.692Z,102228.38
2022-10-17T17:27:47.053Z,102234.59
2022-10-17T17:30:14.464Z,102238.25
2022-10-17T17:32:42.016Z,102240.94
2022-10-17T17:35:09.704Z,102232.16
2022-10-17T17:37:37.146Z,102238.44
2022-10-17T17:40:06.113Z,102241.13
2022-10-17T17:42:33.549Z,102248.28
2022-10-17T17:45:00.940Z,102256.34
2022-10-17T17:47:29.701Z,102264.34
2022-10-17T17:49:57.335Z,102263.50
2022-10-17T17:52:24.733Z,102267.03
2022-10-17T17:54:52.148Z,102266.16
2022-10-17T17:57:19.469Z,102260.00
2022-10-17T17:59:48.491Z,102263.66
2022-10-17T18:02:16.735Z,102260.16
2022-10-17T18:04:44.237Z,102269.03
2022-10-17T18:07:11.615Z,102273.50
2022-10-17T18:09:39.012Z,102273.56
2022-10-17T18:12:06.353Z,102270.97
2022-10-17T18:14:33.776Z,102279.00
2022-10-17T18:17:01.148Z,102275.50
2022-10-17T18:19:28.669Z,102280.88
2022-10-17T18:21:56.215Z,102274.72
2022-10-17T18:24:23.599Z,102281.00
2022-10-17T18:26:53.827Z,102283.69
2022-10-17T18:29:21.399Z,102278.44
2022-10-17T18:31:48.823Z,102290.00
2022-10-17T18:34:19.343Z,102282.91
2022-10-17T18:36:46.897Z,102283.84
2022-10-17T18:39:14.288Z,102289.16
2022-10-17T18:41:41.948Z,102294.50
2022-10-17T18:44:12.291Z,102300.75
2022-10-17T18:46:41.241Z,102297.22
2022-10-17T18:49:11.956Z,102302.50
2022-10-17T18:51:40.039Z,102306.09
2022-10-17T18:54:14.619Z,102312.31
2022-10-17T18:56:42.217Z,102312.38
2022-10-17T18:59:09.655Z,102308.84
2022-10-17T19:01:37.083Z,102308.00
2022-10-17T19:04:04.729Z,102314.25
2022-10-17T19:06:32.480Z,102308.06
2022-10-17T19:09:10.561Z,102307.25
2022-10-17T19:11:38.802Z,102320.56
2022-10-17T19:14:13.041Z,102321.44
2022-10-17T19:16:50.810Z,102327.59
2022-10-17T19:19:24.895Z,102322.28
2022-10-17T19:21:53.493Z,102313.50
2022-10-17T19:24:24.186Z,102308.19
2022-10-17T19:26:54.934Z,102302.88
2022-10-17T19:29:27.450Z,102309.06
2022-10-17T19:34:23.692Z,102315.25
2022-10-17T19:36:52.019Z,102313.44
2022-10-17T19:39:23.196Z,102321.38
2022-10-17T19:41:50.807Z,102324.94
2022-10-17T19:44:18.491Z,102313.44
2022-10-17T19:46:46.904Z,102309.84
2022-10-17T19:49:15.677Z,102308.94
2022-10-17T19:51:43.240Z,102317.75
2022-10-17T19:54:11.310Z,102310.72
2022-10-17T19:56:38.825Z,102313.38
2022-10-17T19:59:08.354Z,102319.56
2022-10-17T20:01:41.192Z,102318.63
2022-10-17T20:04:10.917Z,102315.97
2022-10-17T20:06:39.824Z,102320.41
2022-10-17T20:09:11.166Z,102333.72
2022-10-17T20:11:44.992Z,102332.84
2022-10-17T20:14:12.570Z,102331.06
2022-10-17T20:16:39.976Z,102326.69
2022-10-17T20:19:11.847Z,102331.06
2022-10-17T20:21:39.868Z,102333.91
2022-10-17T20:24:13.214Z,102324.22
2022-10-17T20:26:54.184Z,102328.56
2022-10-17T20:29:23.893Z,102330.41
2022-10-17T20:31:51.303Z,102333.97
2022-10-17T20:34:19.749Z,102337.50
2022-10-17T20:36:48.371Z,102337.50
2022-10-17T20:39:19.056Z,102345.47
2022-10-17T20:41:47.190Z,102349.91
2022-10-17T20:44:14.682Z,102354.31
2022-10-17T20:46:48.743Z,102360.53
2022-10-17T20:49:25.249Z,102364.06
2022-10-17T20:51:52.660Z,102366.72
2022-10-17T20:54:21.823Z,102378.22
2022-10-17T20:57:01.048Z,102377.34
2022-10-17T20:59:35.048Z,102365.00
2022-10-17T21:02:04.715Z,102358.81
2022-10-17T21:04:45.950Z,102372.97
2022-10-17T21:07:14.812Z,102382.75
2022-10-17T21:09:42.205Z,102387.19
2022-10-17T21:12:09.570Z,102378.34
2022-10-17T21:14:39.777Z,102387.25
2022-10-17T21:17:07.748Z,102389.94
2022-10-17T21:19:35.172Z,102398.78
2022-10-17T21:22:02.511Z,102384.69
2022-10-17T21:24:30.871Z,102389.13
2022-10-17T21:26:58.780Z,102382.97
2022-10-17T21:29:26.404Z,102385.66
2022-10-17T21:31:53.894Z,102389.28
2022-10-17T21:34:27.705Z,102390.16
2022-10-17T21:36:55.261Z,102393.78
2022-10-17T21:39:24.714Z,102393.81
2022-10-17T21:41:53.407Z,102398.25
2022-10-17T21:44:25.284Z,102391.25
2022-10-17T21:46:56.980Z,102399.28
2022-10-17T21:49:30.934Z,102408.19
2022-10-17T21:51:58.579Z,102402.06
2022-10-17T21:54:25.920Z,102408.31
2022-10-17T21:56:53.271Z,102395.13
2022-10-17T21:59:20.616Z,102406.72
2022-10-17T22:01:48.093Z,102405.00
2022-10-17T22:04:18.869Z,102406.81
2022-10-17T22:06:50.983Z,102412.19
2022-10-17T22:09:22.730Z,102412.28
2022-10-17T22:11:55.362Z,102412.34
2022-10-17T22:14:25.916Z,102417.75
2022-10-17T22:16:54.344Z,102413.38
2022-10-17T22:19:29.128Z,102415.19
2022-10-17T22:21:56.610Z,102412.59
2022-10-17T22:24:24.114Z,102411.78
2022-10-17T22:26:51.566Z,102411.84
2022-10-17T22:29:19.547Z,102421.63
2022-10-17T22:31:47.231Z,102423.44
2022-10-17T22:34:16.921Z,102430.53
2022-10-17T22:36:44.639Z,102442.06
2022-10-17T22:39:12.001Z,102442.06
2022-10-17T22:41:39.514Z,102444.72
2022-10-17T22:44:07.319Z,102435.03
2022-10-17T22:46:35.150Z,102431.53
2022-10-17T22:49:03.331Z,102434.19
2022-10-17T22:51:31.265Z,102419.19
2022-10-17T22:53:58.722Z,102428.94
2022-10-17T22:56:26.115Z,102439.56
2022-10-17T22:58:53.483Z,102442.28
2022-10-17T23:01:24.455Z,102452.91
2022-10-17T23:03:53.073Z,102448.56
2022-10-17T23:06:21.760Z,102448.56
2022-10-17T23:08:49.228Z,102446.81
2022-10-17T23:11:17.365Z,102439.78
2022-10-17T23:13:44.787Z,102444.22
2022-10-17T23:16:12.351Z,102446.88
2022-10-17T23:18:40.063Z,102445.16
2022-10-17T23:21:08.291Z,102450.44
2022-10-17T23:23:36.295Z,102449.59
2022-10-17T23:26:12.743Z,102447.88
2022-10-17T23:28:41.831Z,102447.03
2022-10-17T23:31:18.737Z,102439.97
2022-10-17T23:33:48.849Z,102433.91
2022-10-17T23:36:20.361Z,102436.56
2022-10-17T23:38:48.456Z,102438.50
2022-10-17T23:41:16.542Z,102435.88
2022-10-17T23:43:44.076Z,102437.59
2022-10-17T23:46:11.786Z,102432.34
2022-10-17T23:48:40.375Z,102428.75
2022-10-17T23:51:09.815Z,102440.25
2022-10-17T23:53:38.186Z,102438.50
2022-10-17T23:56:07.791Z,102437.56
2022-10-17T23:58:35.611Z,102425.25
